KLM2722 EHBK-EHAM
Flight info
| Callsign | KLM2722 |
|---|---|
| Flight time | 0h 41m |
| Altitude | 12000 |
| Route | PESE4B PESER |
| Aircraft | E120/L-VGDW/C |
Departure
| Time | 2026-05-07 03:48 |
|---|---|
| Airport | Maastricht Aachen Airport (EHBK) |
Arrival
| Time | 2026-05-07 04:29 |
|---|---|
| Airport | Amsterdam Airport Schiphol (EHAM) |
| Time | Latitude | Longitude | Altitude | Speed | Heading |
|---|---|---|---|---|---|
| 2026-05-07 03:31 | 50.91502 | 5.76928 | 380 ft | 0 kts | 304° |
| 2026-05-07 03:38 | 50.91501 | 5.76931 | 380 ft | 1 kts | 304° |
| 2026-05-07 03:38 | 50.91491 | 5.76953 | 380 ft | 3 kts | 306° |
| 2026-05-07 03:38 | 50.91479 | 5.76979 | 380 ft | 3 kts | 310° |
| 2026-05-07 03:38 | 50.91465 | 5.77002 | 380 ft | 3 kts | 319° |
| 2026-05-07 03:39 | 50.91449 | 5.77020 | 380 ft | 3 kts | 340° |
| 2026-05-07 03:39 | 50.91433 | 5.77025 | 380 ft | 2 kts | 26° |
| 2026-05-07 03:39 | 50.91427 | 5.77019 | 380 ft | 1 kts | 32° |
| 2026-05-07 03:39 | 50.91427 | 5.77018 | 380 ft | 0 kts | 32° |
| 2026-05-07 03:41 | 50.91446 | 5.77037 | 380 ft | 11 kts | 32° |
| 2026-05-07 03:41 | 50.91508 | 5.77099 | 380 ft | 8 kts | 32° |
| 2026-05-07 03:41 | 50.91583 | 5.77173 | 380 ft | 10 kts | 32° |
| 2026-05-07 03:42 | 50.91656 | 5.77243 | 380 ft | 13 kts | 31° |
| 2026-05-07 03:42 | 50.91709 | 5.77292 | 380 ft | 10 kts | 30° |
| 2026-05-07 03:42 | 50.91804 | 5.77383 | 380 ft | 16 kts | 31° |
| 2026-05-07 03:42 | 50.91887 | 5.77462 | 380 ft | 18 kts | 32° |
| 2026-05-07 03:43 | 50.91987 | 5.77558 | 380 ft | 17 kts | 31° |
| 2026-05-07 03:43 | 50.92069 | 5.77637 | 380 ft | 12 kts | 31° |
| 2026-05-07 03:43 | 50.92112 | 5.77679 | 380 ft | 3 kts | 31° |
| 2026-05-07 03:43 | 50.92115 | 5.77681 | 380 ft | 0 kts | 31° |
| 2026-05-07 03:45 | 50.92125 | 5.77691 | 380 ft | 6 kts | 31° |
| 2026-05-07 03:45 | 50.92141 | 5.77731 | 380 ft | 3 kts | 103° |
| 2026-05-07 03:46 | 50.92126 | 5.77766 | 380 ft | 2 kts | 126° |
| 2026-05-07 03:46 | 50.92125 | 5.77768 | 380 ft | 0 kts | 126° |
| 2026-05-07 03:46 | 50.92123 | 5.77771 | 380 ft | 3 kts | 125° |
| 2026-05-07 03:46 | 50.92091 | 5.77848 | 380 ft | 8 kts | 123° |
| 2026-05-07 03:47 | 50.92052 | 5.77892 | 380 ft | 6 kts | 194° |
| 2026-05-07 03:47 | 50.92031 | 5.77877 | 380 ft | 0 kts | 208° |
| 2026-05-07 03:47 | 50.92021 | 5.77868 | 380 ft | 2 kts | 209° |
| 2026-05-07 03:47 | 50.91967 | 5.77815 | 380 ft | 43 kts | 213° |
| 2026-05-07 03:48 | 50.91407 | 5.77247 | 380 ft | 134 kts | 212° |
| 2026-05-07 03:48 | 50.90548 | 5.76357 | 544 ft | 153 kts | 214° |
| 2026-05-07 03:48 | 50.89626 | 5.75344 | 851 ft | 169 kts | 214° |
| 2026-05-07 03:48 | 50.88596 | 5.74246 | 1085 ft | 183 kts | 213° |
| 2026-05-07 03:49 | 50.87484 | 5.73087 | 1547 ft | 196 kts | 213° |
| 2026-05-07 03:49 | 50.86325 | 5.71885 | 2058 ft | 203 kts | 213° |
| 2026-05-07 03:49 | 50.85000 | 5.71082 | 2551 ft | 208 kts | 186° |
| 2026-05-07 03:49 | 50.83590 | 5.71517 | 3056 ft | 211 kts | 153° |
| 2026-05-07 03:50 | 50.82525 | 5.73094 | 3569 ft | 213 kts | 123° |
| 2026-05-07 03:50 | 50.81949 | 5.75249 | 4081 ft | 215 kts | 102° |
| 2026-05-07 03:50 | 50.81941 | 5.77586 | 4581 ft | 217 kts | 78° |
| 2026-05-07 03:50 | 50.82612 | 5.79709 | 5084 ft | 219 kts | 49° |
| 2026-05-07 03:51 | 50.83751 | 5.81318 | 5603 ft | 221 kts | 37° |
| 2026-05-07 03:51 | 50.85009 | 5.82735 | 6107 ft | 223 kts | 34° |
| 2026-05-07 03:51 | 50.86314 | 5.84080 | 6606 ft | 224 kts | 29° |
| 2026-05-07 03:51 | 50.87748 | 5.85072 | 7114 ft | 225 kts | 20° |
| 2026-05-07 03:52 | 50.89231 | 5.85878 | 7616 ft | 226 kts | 18° |
| 2026-05-07 03:52 | 50.90732 | 5.86638 | 8117 ft | 227 kts | 17° |
| 2026-05-07 03:52 | 50.92224 | 5.87379 | 8613 ft | 227 kts | 17° |
| 2026-05-07 03:52 | 50.93739 | 5.88128 | 9114 ft | 228 kts | 17° |
| 2026-05-07 03:53 | 50.95189 | 5.89152 | 9601 ft | 229 kts | 36° |
| 2026-05-07 03:53 | 50.96181 | 5.91098 | 10114 ft | 229 kts | 62° |
| 2026-05-07 03:53 | 50.96805 | 5.93455 | 10502 ft | 235 kts | 66° |
| 2026-05-07 03:53 | 50.97811 | 5.95519 | 10785 ft | 242 kts | 38° |
| 2026-05-07 03:54 | 50.99353 | 5.96587 | 11040 ft | 246 kts | 9° |
| 2026-05-07 03:54 | 51.01066 | 5.96522 | 11309 ft | 248 kts | 351° |
| 2026-05-07 03:54 | 51.02739 | 5.95966 | 11561 ft | 249 kts | 346° |
| 2026-05-07 03:54 | 51.04430 | 5.95290 | 11791 ft | 251 kts | 346° |
| 2026-05-07 03:55 | 51.06146 | 5.94639 | 11928 ft | 255 kts | 347° |
| 2026-05-07 03:55 | 51.07903 | 5.94053 | 11991 ft | 259 kts | 349° |
| 2026-05-07 03:55 | 51.09695 | 5.93533 | 12002 ft | 263 kts | 350° |
| 2026-05-07 03:55 | 51.11506 | 5.93070 | 12004 ft | 264 kts | 351° |
| 2026-05-07 03:56 | 51.13308 | 5.92651 | 12004 ft | 265 kts | 352° |
| 2026-05-07 03:56 | 51.15161 | 5.92247 | 12003 ft | 265 kts | 352° |
| 2026-05-07 03:56 | 51.16967 | 5.91866 | 12003 ft | 265 kts | 352° |
| 2026-05-07 03:56 | 51.18800 | 5.91483 | 12003 ft | 265 kts | 352° |
| 2026-05-07 03:57 | 51.20633 | 5.91101 | 12003 ft | 265 kts | 352° |
| 2026-05-07 03:57 | 51.22301 | 5.90711 | 11999 ft | 266 kts | 348° |
| 2026-05-07 03:57 | 51.23179 | 5.90236 | 11998 ft | 265 kts | 335° |
| 2026-05-07 03:57 | 51.24573 | 5.88827 | 12009 ft | 265 kts | 322° |
| 2026-05-07 03:58 | 51.25912 | 5.86844 | 12006 ft | 265 kts | 314° |
| 2026-05-07 03:58 | 51.27129 | 5.84626 | 12004 ft | 265 kts | 309° |
| 2026-05-07 03:58 | 51.28268 | 5.82304 | 12003 ft | 265 kts | 307° |
| 2026-05-07 03:58 | 51.29363 | 5.79932 | 12003 ft | 265 kts | 306° |
| 2026-05-07 03:59 | 51.30436 | 5.77531 | 12003 ft | 265 kts | 305° |
| 2026-05-07 03:59 | 51.31499 | 5.75109 | 12003 ft | 265 kts | 305° |
| 2026-05-07 03:59 | 51.32554 | 5.72684 | 12003 ft | 265 kts | 304° |
| 2026-05-07 03:59 | 51.33605 | 5.70254 | 12003 ft | 265 kts | 304° |
| 2026-05-07 04:00 | 51.34655 | 5.67820 | 12003 ft | 265 kts | 304° |
| 2026-05-07 04:00 | 51.35703 | 5.65386 | 12003 ft | 265 kts | 304° |
| 2026-05-07 04:00 | 51.36752 | 5.62949 | 12003 ft | 265 kts | 304° |
| 2026-05-07 04:00 | 51.37784 | 5.60544 | 12003 ft | 265 kts | 304° |
| 2026-05-07 04:01 | 51.38831 | 5.58106 | 12003 ft | 265 kts | 304° |
| 2026-05-07 04:01 | 51.39876 | 5.55668 | 12003 ft | 265 kts | 304° |
| 2026-05-07 04:01 | 51.40926 | 5.53218 | 12003 ft | 265 kts | 304° |
| 2026-05-07 04:01 | 51.41971 | 5.50776 | 12003 ft | 265 kts | 304° |
| 2026-05-07 04:02 | 51.42663 | 5.49159 | 12003 ft | 265 kts | 304° |
| 2026-05-07 04:02 | 51.43706 | 5.46716 | 12003 ft | 265 kts | 304° |
| 2026-05-07 04:02 | 51.44749 | 5.44273 | 12003 ft | 265 kts | 304° |
| 2026-05-07 04:02 | 51.45706 | 5.41743 | 12003 ft | 265 kts | 297° |
| 2026-05-07 04:03 | 51.46475 | 5.39043 | 12004 ft | 265 kts | 292° |
| 2026-05-07 04:03 | 51.47127 | 5.36271 | 12003 ft | 265 kts | 289° |
| 2026-05-07 04:03 | 51.47711 | 5.33460 | 12003 ft | 265 kts | 288° |
| 2026-05-07 04:03 | 51.48255 | 5.30629 | 12003 ft | 266 kts | 287° |
| 2026-05-07 04:04 | 51.48771 | 5.27816 | 12003 ft | 266 kts | 286° |
| 2026-05-07 04:04 | 51.49277 | 5.24973 | 12003 ft | 266 kts | 285° |
| 2026-05-07 04:04 | 51.49778 | 5.22113 | 12003 ft | 266 kts | 285° |
| 2026-05-07 04:04 | 51.50272 | 5.19260 | 12003 ft | 266 kts | 285° |
| 2026-05-07 04:05 | 51.50765 | 5.16394 | 12003 ft | 266 kts | 285° |
| 2026-05-07 04:05 | 51.51254 | 5.13540 | 12003 ft | 266 kts | 285° |
| 2026-05-07 04:05 | 51.51744 | 5.10671 | 12003 ft | 266 kts | 285° |
| 2026-05-07 04:05 | 51.52225 | 5.07849 | 12003 ft | 266 kts | 285° |
| 2026-05-07 04:06 | 51.52712 | 5.04987 | 12003 ft | 266 kts | 285° |
| 2026-05-07 04:06 | 51.53198 | 5.02125 | 12003 ft | 266 kts | 285° |
| 2026-05-07 04:06 | 51.53682 | 4.99267 | 12003 ft | 266 kts | 285° |
| 2026-05-07 04:06 | 51.54166 | 4.96404 | 12003 ft | 266 kts | 285° |
| 2026-05-07 04:07 | 51.54648 | 4.93545 | 12003 ft | 266 kts | 285° |
| 2026-05-07 04:07 | 51.55132 | 4.90673 | 12003 ft | 266 kts | 285° |
| 2026-05-07 04:07 | 51.55614 | 4.87815 | 12003 ft | 266 kts | 285° |
| 2026-05-07 04:07 | 51.56097 | 4.84949 | 12003 ft | 266 kts | 285° |
| 2026-05-07 04:08 | 51.56580 | 4.82077 | 12003 ft | 266 kts | 285° |
| 2026-05-07 04:08 | 51.57060 | 4.79217 | 12003 ft | 266 kts | 285° |
| 2026-05-07 04:08 | 51.57542 | 4.76343 | 12003 ft | 266 kts | 285° |
| 2026-05-07 04:08 | 51.58022 | 4.73475 | 12003 ft | 266 kts | 285° |
| 2026-05-07 04:09 | 51.58502 | 4.70605 | 12003 ft | 266 kts | 285° |
| 2026-05-07 04:09 | 51.58893 | 4.68264 | 12003 ft | 266 kts | 285° |
| 2026-05-07 04:09 | 51.59370 | 4.65398 | 12003 ft | 266 kts | 285° |
| 2026-05-07 04:09 | 51.59848 | 4.62518 | 12003 ft | 266 kts | 285° |
| 2026-05-07 04:10 | 51.60324 | 4.59651 | 12003 ft | 266 kts | 285° |
| 2026-05-07 04:10 | 51.60822 | 4.56787 | 12002 ft | 266 kts | 288° |
| 2026-05-07 04:10 | 51.61526 | 4.54046 | 12004 ft | 265 kts | 295° |
| 2026-05-07 04:10 | 51.62394 | 4.51425 | 12004 ft | 266 kts | 300° |
| 2026-05-07 04:11 | 51.63359 | 4.48884 | 12003 ft | 266 kts | 302° |
| 2026-05-07 04:11 | 51.64381 | 4.46394 | 12003 ft | 266 kts | 304° |
| 2026-05-07 04:11 | 51.65428 | 4.43946 | 12003 ft | 266 kts | 305° |
| 2026-05-07 04:11 | 51.66482 | 4.41543 | 12003 ft | 266 kts | 305° |
| 2026-05-07 04:12 | 51.67556 | 4.39120 | 12003 ft | 266 kts | 306° |
| 2026-05-07 04:12 | 51.68635 | 4.36698 | 12003 ft | 266 kts | 306° |
| 2026-05-07 04:12 | 51.69714 | 4.34282 | 12003 ft | 266 kts | 306° |
| 2026-05-07 04:12 | 51.70794 | 4.31861 | 12003 ft | 266 kts | 306° |
| 2026-05-07 04:13 | 51.71723 | 4.29777 | 12003 ft | 266 kts | 306° |
| 2026-05-07 04:13 | 51.72857 | 4.27423 | 12001 ft | 266 kts | 313° |
| 2026-05-07 04:13 | 51.74249 | 4.25480 | 12005 ft | 265 kts | 323° |
| 2026-05-07 04:13 | 51.75697 | 4.23969 | 12004 ft | 265 kts | 329° |
| 2026-05-07 04:14 | 51.77307 | 4.22584 | 12004 ft | 266 kts | 333° |
| 2026-05-07 04:14 | 51.78982 | 4.21320 | 12003 ft | 266 kts | 336° |
| 2026-05-07 04:14 | 51.80685 | 4.20136 | 12003 ft | 266 kts | 337° |
| 2026-05-07 04:14 | 51.82394 | 4.18998 | 12003 ft | 266 kts | 338° |
| 2026-05-07 04:15 | 51.84106 | 4.17885 | 12003 ft | 266 kts | 338° |
| 2026-05-07 04:15 | 51.85824 | 4.16777 | 12003 ft | 266 kts | 338° |
| 2026-05-07 04:15 | 51.87539 | 4.15672 | 12003 ft | 266 kts | 338° |
| 2026-05-07 04:15 | 51.89292 | 4.14735 | 11995 ft | 266 kts | 351° |
| 2026-05-07 04:16 | 51.91128 | 4.14927 | 11826 ft | 271 kts | 15° |
| 2026-05-07 04:16 | 51.92858 | 4.16262 | 11503 ft | 279 kts | 32° |
| 2026-05-07 04:16 | 51.94420 | 4.18147 | 11233 ft | 281 kts | 39° |
| 2026-05-07 04:16 | 51.95875 | 4.20246 | 10911 ft | 279 kts | 43° |
| 2026-05-07 04:17 | 51.97257 | 4.22399 | 10604 ft | 277 kts | 44° |
| 2026-05-07 04:17 | 51.98614 | 4.24603 | 10328 ft | 275 kts | 45° |
| 2026-05-07 04:17 | 51.99936 | 4.26830 | 10052 ft | 273 kts | 46° |
| 2026-05-07 04:17 | 52.01235 | 4.29049 | 9774 ft | 267 kts | 46° |
| 2026-05-07 04:18 | 52.02487 | 4.31199 | 9494 ft | 255 kts | 46° |
| 2026-05-07 04:18 | 52.03679 | 4.33249 | 9212 ft | 244 kts | 46° |
| 2026-05-07 04:18 | 52.04830 | 4.35233 | 8932 ft | 237 kts | 46° |
| 2026-05-07 04:18 | 52.05954 | 4.37168 | 8653 ft | 233 kts | 46° |
| 2026-05-07 04:19 | 52.07044 | 4.39049 | 8379 ft | 230 kts | 47° |
| 2026-05-07 04:19 | 52.07935 | 4.41164 | 8087 ft | 228 kts | 65° |
| 2026-05-07 04:19 | 52.08481 | 4.43605 | 7694 ft | 231 kts | 73° |
| 2026-05-07 04:19 | 52.08590 | 4.46197 | 7294 ft | 232 kts | 97° |
| 2026-05-07 04:20 | 52.08224 | 4.48755 | 6903 ft | 232 kts | 106° |
| 2026-05-07 04:20 | 52.07599 | 4.51170 | 6505 ft | 233 kts | 120° |
| 2026-05-07 04:20 | 52.06706 | 4.53366 | 6108 ft | 233 kts | 126° |
| 2026-05-07 04:21 | 52.04770 | 4.57537 | 5313 ft | 232 kts | 127° |
| 2026-05-07 04:21 | 52.03786 | 4.59604 | 4914 ft | 231 kts | 128° |
| 2026-05-07 04:21 | 52.02798 | 4.61673 | 4512 ft | 231 kts | 128° |
| 2026-05-07 04:21 | 52.01827 | 4.63735 | 4110 ft | 230 kts | 125° |
| 2026-05-07 04:22 | 52.01274 | 4.66134 | 3698 ft | 228 kts | 96° |
| 2026-05-07 04:22 | 52.01533 | 4.68637 | 3303 ft | 226 kts | 67° |
| 2026-05-07 04:22 | 52.02366 | 4.70745 | 3091 ft | 217 kts | 46° |
| 2026-05-07 04:22 | 52.03638 | 4.71890 | 3018 ft | 206 kts | 14° |
| 2026-05-07 04:23 | 52.05061 | 4.72072 | 3016 ft | 208 kts | 359° |
| 2026-05-07 04:23 | 52.06488 | 4.71896 | 3003 ft | 202 kts | 354° |
| 2026-05-07 04:23 | 52.07798 | 4.71681 | 3038 ft | 179 kts | 355° |
| 2026-05-07 04:23 | 52.08987 | 4.71564 | 2994 ft | 168 kts | 358° |
| 2026-05-07 04:24 | 52.10125 | 4.71566 | 2991 ft | 160 kts | 1° |
| 2026-05-07 04:24 | 52.11224 | 4.71668 | 2995 ft | 156 kts | 4° |
| 2026-05-07 04:24 | 52.12298 | 4.71839 | 2998 ft | 154 kts | 6° |
| 2026-05-07 04:24 | 52.13359 | 4.72040 | 3000 ft | 153 kts | 7° |
| 2026-05-07 04:25 | 52.14417 | 4.72241 | 3002 ft | 152 kts | 6° |
| 2026-05-07 04:25 | 52.15477 | 4.72417 | 2953 ft | 155 kts | 5° |
| 2026-05-07 04:25 | 52.16580 | 4.72562 | 2815 ft | 161 kts | 4° |
| 2026-05-07 04:25 | 52.17715 | 4.72672 | 2638 ft | 166 kts | 3° |
| 2026-05-07 04:26 | 52.18865 | 4.72755 | 2419 ft | 169 kts | 2° |
| 2026-05-07 04:26 | 52.20004 | 4.72828 | 2146 ft | 157 kts | 2° |
| 2026-05-07 04:26 | 52.21077 | 4.72902 | 1859 ft | 150 kts | 2° |
| 2026-05-07 04:26 | 52.22069 | 4.72983 | 1681 ft | 137 kts | 3° |
| 2026-05-07 04:27 | 52.23006 | 4.73068 | 1477 ft | 133 kts | 3° |
| 2026-05-07 04:27 | 52.23921 | 4.73155 | 1295 ft | 130 kts | 3° |
| 2026-05-07 04:27 | 52.24810 | 4.73241 | 1133 ft | 129 kts | 3° |
| 2026-05-07 04:27 | 52.25701 | 4.73325 | 976 ft | 127 kts | 3° |
| 2026-05-07 04:28 | 52.26584 | 4.73406 | 819 ft | 127 kts | 3° |
| 2026-05-07 04:28 | 52.27468 | 4.73487 | 657 ft | 127 kts | 3° |
| 2026-05-07 04:28 | 52.28351 | 4.73567 | 491 ft | 127 kts | 3° |
| 2026-05-07 04:28 | 52.29233 | 4.73648 | 323 ft | 126 kts | 3° |
| 2026-05-07 04:29 | 52.30101 | 4.73725 | 156 ft | 126 kts | 4° |
| 2026-05-07 04:29 | 52.30953 | 4.73802 | 14 ft | 113 kts | 3° |
| 2026-05-07 04:29 | 52.31599 | 4.73864 | 10 ft | 74 kts | 3° |
| 2026-05-07 04:29 | 52.31905 | 4.73895 | 10 ft | 10 kts | 7° |
| 2026-05-07 04:30 | 52.31965 | 4.73905 | 10 ft | 11 kts | 12° |
| 2026-05-07 04:30 | 52.32018 | 4.73964 | 10 ft | 16 kts | 51° |
| 2026-05-07 04:30 | 52.32038 | 4.74075 | 10 ft | 6 kts | 91° |
| 2026-05-07 04:30 | 52.32035 | 4.74150 | 10 ft | 6 kts | 95° |
| 2026-05-07 04:31 | 52.32025 | 4.74278 | 10 ft | 9 kts | 112° |
| 2026-05-07 04:31 | 52.31978 | 4.74340 | 10 ft | 14 kts | 173° |
| 2026-05-07 04:31 | 52.31896 | 4.74330 | 10 ft | 10 kts | 184° |
| 2026-05-07 04:31 | 52.31822 | 4.74322 | 10 ft | 11 kts | 183° |
| 2026-05-07 04:32 | 52.31730 | 4.74314 | 10 ft | 12 kts | 183° |
| 2026-05-07 04:32 | 52.31626 | 4.74304 | 10 ft | 15 kts | 183° |
| 2026-05-07 04:32 | 52.31525 | 4.74295 | 10 ft | 14 kts | 183° |
| 2026-05-07 04:32 | 52.31436 | 4.74282 | 10 ft | 12 kts | 185° |
| 2026-05-07 04:33 | 52.31390 | 4.74353 | 10 ft | 10 kts | 84° |
| 2026-05-07 04:33 | 52.31394 | 4.74488 | 10 ft | 14 kts | 85° |
| 2026-05-07 04:33 | 52.31400 | 4.74649 | 10 ft | 16 kts | 86° |
| 2026-05-07 04:33 | 52.31405 | 4.74806 | 10 ft | 19 kts | 90° |
| 2026-05-07 04:34 | 52.31410 | 4.74992 | 10 ft | 15 kts | 91° |
| 2026-05-07 04:34 | 52.31413 | 4.75151 | 10 ft | 16 kts | 87° |
| 2026-05-07 04:34 | 52.31419 | 4.75327 | 10 ft | 14 kts | 86° |
| 2026-05-07 04:34 | 52.31424 | 4.75445 | 10 ft | 7 kts | 85° |
| 2026-05-07 04:35 | 52.31432 | 4.75573 | 10 ft | 10 kts | 88° |
| 2026-05-07 04:35 | 52.31435 | 4.75683 | 10 ft | 18 kts | 88° |
| 2026-05-07 04:35 | 52.31446 | 4.75838 | 10 ft | 10 kts | 86° |
| 2026-05-07 04:35 | 52.31420 | 4.75927 | 10 ft | 8 kts | 155° |
| 2026-05-07 04:36 | 52.31387 | 4.75927 | 10 ft | 8 kts | 182° |
| 2026-05-07 04:36 | 52.31319 | 4.75928 | 10 ft | 16 kts | 178° |
| 2026-05-07 04:36 | 52.31223 | 4.75934 | 10 ft | 10 kts | 184° |
| 2026-05-07 04:36 | 52.31189 | 4.75887 | 10 ft | 6 kts | 240° |
| 2026-05-07 04:37 | 52.31185 | 4.75830 | 10 ft | 5 kts | 265° |
| 2026-05-07 04:37 | 52.31184 | 4.75805 | 10 ft | 0 kts | 267° |